createdAt,value
2022-10-13T00:05:54.725Z,100
2022-10-13T00:15:55.277Z,100
2022-10-13T00:25:55.823Z,100
2022-10-13T00:35:56.411Z,100
2022-10-13T00:45:56.978Z,100
2022-10-13T00:55:57.752Z,100
2022-10-13T01:05:58.464Z,100
2022-10-13T01:15:59.297Z,100
2022-10-13T01:26:00.326Z,100
2022-10-13T01:36:01.307Z,100
2022-10-13T01:46:01.914Z,100
2022-10-13T01:56:02.800Z,100
2022-10-13T02:06:03.843Z,100
2022-10-13T02:16:04.091Z,100
2022-10-13T02:26:04.922Z,100
2022-10-13T02:36:05.950Z,100
2022-10-13T02:46:06.416Z,100
2022-10-13T02:56:07.439Z,100
2022-10-13T03:06:08.049Z,100
2022-10-13T03:26:09.569Z,100
2022-10-13T03:36:10.364Z,100
2022-10-13T03:46:11.444Z,100
2022-10-13T04:46:15.383Z,100
2022-10-13T05:16:18.225Z,100
2022-10-13T05:26:18.435Z,100
2022-10-13T05:36:19.239Z,100
2022-10-13T05:46:19.731Z,100
2022-10-13T05:56:20.109Z,100
2022-10-13T06:06:20.642Z,100
2022-10-13T06:16:21.447Z,100
2022-10-13T06:26:21.770Z,100
2022-10-13T06:36:22.737Z,100
2022-10-13T06:46:23.778Z,100
2022-10-13T06:56:23.997Z,100
2022-10-13T07:06:24.784Z,100
2022-10-13T07:16:25.177Z,100
2022-10-13T07:26:26.220Z,100
2022-10-13T07:36:26.812Z,100
2022-10-13T07:46:27.807Z,100
2022-10-13T07:56:28.394Z,100
2022-10-13T08:06:28.556Z,100
2022-10-13T08:16:29.469Z,100
2022-10-13T08:26:30.428Z,100
2022-10-13T08:36:31.497Z,100
2022-10-13T08:46:31.751Z,100
2022-10-13T08:56:32.265Z,100
2022-10-13T09:06:32.743Z,100
2022-10-13T09:16:33.608Z,100
2022-10-13T09:26:34.226Z,100
2022-10-13T09:36:34.581Z,100
2022-10-13T09:46:35.309Z,100
2022-10-13T09:56:35.606Z,100
2022-10-13T10:06:35.868Z,98
2022-10-13T10:26:37.410Z,96
2022-10-13T10:36:37.737Z,92
2022-10-13T10:46:38.642Z,86
2022-10-13T10:56:39.031Z,84
2022-10-13T11:06:39.383Z,82
2022-10-13T11:16:40.333Z,82
2022-10-13T11:26:40.654Z,79
2022-10-13T11:46:41.905Z,76
2022-10-13T11:56:44.935Z,74
2022-10-13T12:26:43.362Z,75
2022-10-13T12:36:43.525Z,77
2022-10-13T13:06:44.479Z,84
2022-10-13T13:36:46.258Z,90
2022-10-13T14:46:49.476Z,98
2022-10-13T15:26:53.006Z,100
2022-10-13T15:47:07.318Z,100
2022-10-13T16:16:59.453Z,100
2022-10-13T18:37:04.006Z,100
2022-10-13T19:17:06.438Z,100
2022-10-13T20:17:08.690Z,100
2022-10-13T20:27:08.875Z,100
2022-10-13T22:17:16.212Z,100
2022-10-13T22:47:17.051Z,100
2022-10-13T22:57:17.221Z,100
2022-10-13T23:17:18.283Z,100
2022-10-13T23:27:19.029Z,100
2022-10-13T23:37:20.065Z,100
